createdAt,value
2022-10-22T00:00:55.817Z,100316.34
2022-10-22T00:03:22.361Z,100310.19
2022-10-22T00:05:48.821Z,100314.66
2022-10-22T00:08:15.240Z,100314.59
2022-10-22T00:10:41.892Z,100326.81
2022-10-22T00:13:08.463Z,100325.97
2022-10-22T00:15:34.875Z,100316.38
2022-10-22T00:18:01.355Z,100320.75
2022-10-22T00:20:27.877Z,100331.28
2022-10-22T00:22:54.310Z,100325.16
2022-10-22T00:25:20.744Z,100325.16
2022-10-22T00:27:47.237Z,100326.75
2022-10-22T00:30:13.972Z,100323.22
2022-10-22T00:32:40.620Z,100331.94
2022-10-22T00:35:07.315Z,100332.94
2022-10-22T00:37:33.749Z,100329.59
2022-10-22T00:40:00.180Z,100326.13
2022-10-22T00:42:30.180Z,100319.13
2022-10-22T00:45:08.462Z,100322.56
2022-10-22T00:47:36.783Z,100325.16
2022-10-22T00:50:19.952Z,100320.78
2022-10-22T00:52:47.040Z,100319.00
2022-10-22T00:55:15.299Z,100320.75
2022-10-22T00:57:42.602Z,100312.69
2022-10-22T01:00:09.918Z,100323.16
2022-10-22T01:02:36.371Z,100320.50
2022-10-22T01:05:03.167Z,100313.53
2022-10-22T01:07:29.661Z,100320.50
2022-10-22T01:10:22.446Z,100324.81
2022-10-22T01:13:09.344Z,100319.44
2022-10-22T01:15:59.952Z,100328.19
2022-10-22T01:18:43.178Z,100314.06
2022-10-22T01:21:31.172Z,100310.41
2022-10-22T01:24:15.683Z,100300.75
2022-10-22T01:27:06.947Z,100301.53
2022-10-22T01:29:38.365Z,100303.25
2022-10-22T01:32:32.831Z,100293.59
2022-10-22T01:35:04.520Z,100301.47
2022-10-22T01:37:34.759Z,100289.13
2022-10-22T01:40:02.288Z,100288.25
2022-10-22T01:42:29.184Z,100299.66
2022-10-22T01:44:55.672Z,100285.59
2022-10-22T01:47:40.602Z,100288.16
2022-10-22T01:50:15.466Z,100284.63
2022-10-22T01:53:17.319Z,100289.03
2022-10-22T01:56:08.563Z,100289.13
2022-10-22T01:58:39.743Z,100285.63
2022-10-22T02:01:34.423Z,100287.38
2022-10-22T02:04:28.488Z,100290.03
2022-10-22T02:07:01.415Z,100292.63
2022-10-22T02:09:30.943Z,100288.16
2022-10-22T02:12:00.771Z,100292.56
2022-10-22T02:14:31.340Z,100285.59
2022-10-22T02:16:59.611Z,100287.31
2022-10-22T02:19:30.687Z,100287.31
2022-10-22T02:21:57.143Z,100284.75
2022-10-22T02:24:24.214Z,100293.50
2022-10-22T02:27:05.264Z,100300.56
2022-10-22T02:29:40.207Z,100302.28
2022-10-22T02:32:10.030Z,100294.34
2022-10-22T02:34:36.433Z,100306.66
2022-10-22T02:37:04.230Z,100297.00
2022-10-22T02:39:32.285Z,100296.97
2022-10-22T02:42:00.551Z,100304.81
2022-10-22T02:44:26.950Z,100304.88
2022-10-22T02:46:53.375Z,100302.97
2022-10-22T02:49:19.755Z,100295.16
2022-10-22T02:51:46.844Z,100307.44
2022-10-22T02:54:13.230Z,100312.63
2022-10-22T02:56:39.700Z,100306.41
2022-10-22T02:59:06.226Z,100312.63
2022-10-22T03:01:32.634Z,100310.88
2022-10-22T03:03:59.105Z,100310.94
2022-10-22T03:08:57.222Z,100309.28
2022-10-22T03:11:23.680Z,100318.97
2022-10-22T03:13:50.108Z,100311.94
2022-10-22T03:16:16.587Z,100308.44
2022-10-22T03:18:42.976Z,100310.28
2022-10-22T03:21:31.768Z,100305.16
2022-10-22T03:23:59.625Z,100312.28
2022-10-22T03:26:26.342Z,100315.91
2022-10-22T03:28:54.013Z,100313.31
2022-10-22T03:31:20.456Z,100309.94
2022-10-22T03:33:46.841Z,100311.72
2022-10-22T03:36:13.366Z,100324.06
2022-10-22T03:38:40.935Z,100324.00
2022-10-22T03:41:07.731Z,100324.06
2022-10-22T03:43:35.771Z,100327.59
2022-10-22T03:46:02.215Z,100326.75
2022-10-22T03:48:28.657Z,100323.41
2022-10-22T03:50:55.103Z,100326.91
2022-10-22T03:53:21.532Z,100329.53
2022-10-22T03:55:47.938Z,100326.13
2022-10-22T03:58:14.575Z,100329.59
2022-10-22T04:00:41.023Z,100326.91
2022-10-22T04:03:07.510Z,100325.19
2022-10-22T04:05:34.188Z,100329.59
2022-10-22T04:08:00.635Z,100335.72
2022-10-22T04:10:27.036Z,100339.25
2022-10-22T04:12:53.499Z,100339.31
2022-10-22T04:15:19.902Z,100343.78
2022-10-22T04:17:46.351Z,100351.75
2022-10-22T04:20:12.797Z,100343.09
2022-10-22T04:22:39.207Z,100355.50
2022-10-22T04:25:05.907Z,100355.50
2022-10-22T04:27:33.759Z,100354.66
2022-10-22T04:30:00.274Z,100360.72
2022-10-22T04:32:27.804Z,100372.06
2022-10-22T04:34:54.235Z,100364.34
2022-10-22T04:37:20.974Z,100361.81
2022-10-22T04:39:47.373Z,100376.81
2022-10-22T04:42:14.137Z,100371.44
2022-10-22T04:44:40.557Z,100366.22
2022-10-22T04:47:06.965Z,100368.00
2022-10-22T04:49:33.786Z,100371.44
2022-10-22T04:52:00.195Z,100371.38
2022-10-22T04:54:29.094Z,100374.91
2022-10-22T04:56:58.768Z,100373.19
2022-10-22T04:59:25.373Z,100378.44
2022-10-22T05:01:51.822Z,100376.69
2022-10-22T05:04:19.631Z,100377.53
2022-10-22T05:06:46.446Z,100381.09
2022-10-22T05:09:16.502Z,100372.41
2022-10-22T05:11:46.252Z,100392.56
2022-10-22T05:14:13.203Z,100388.22
2022-10-22T05:16:39.931Z,100394.44
2022-10-22T05:19:07.550Z,100391.00
2022-10-22T05:21:34.500Z,100398.88
2022-10-22T05:24:01.169Z,100397.22
2022-10-22T05:26:28.935Z,100393.78
2022-10-22T05:28:56.562Z,100395.56
2022-10-22T05:31:23.540Z,100399.06
2022-10-22T05:33:50.111Z,100407.78
2022-10-22T05:36:19.261Z,100408.72
2022-10-22T05:38:45.771Z,100409.59
2022-10-22T05:41:17.148Z,100413.13
2022-10-22T05:43:44.091Z,100409.59
2022-10-22T05:46:13.151Z,100413.13
2022-10-22T05:48:39.965Z,100414.91
2022-10-22T05:51:12.033Z,100416.69
2022-10-22T05:53:41.673Z,100422.84
2022-10-22T05:56:13.647Z,100425.53
2022-10-22T05:58:40.458Z,100439.56
2022-10-22T06:01:12.816Z,100437.91
2022-10-22T06:03:40.467Z,100442.34
2022-10-22T06:06:28.667Z,100443.19
2022-10-22T06:08:56.345Z,100443.97
2022-10-22T06:11:23.869Z,100445.75
2022-10-22T06:13:51.940Z,100444.03
2022-10-22T06:16:18.454Z,100454.53
2022-10-22T06:18:44.910Z,100450.09
2022-10-22T06:21:13.631Z,100450.84
2022-10-22T06:23:41.154Z,100454.19
2022-10-22T06:26:08.300Z,100448.94
2022-10-22T06:28:35.615Z,100462.88
2022-10-22T06:31:03.508Z,100467.22
2022-10-22T06:33:32.250Z,100477.78
2022-10-22T06:36:07.800Z,100483.00
2022-10-22T06:38:34.560Z,100492.50
2022-10-22T06:41:12.455Z,100490.69
2022-10-22T06:43:39.223Z,100496.75
2022-10-22T06:46:08.718Z,100491.53
2022-10-22T06:48:37.825Z,100503.72
2022-10-22T06:51:07.860Z,100504.63
2022-10-22T06:53:35.743Z,100509.81
2022-10-22T06:56:06.958Z,100523.75
2022-10-22T06:58:33.496Z,100517.59
2022-10-22T07:01:11.715Z,100521.00
2022-10-22T07:03:39.742Z,100529.66
2022-10-22T07:06:09.249Z,100533.16
2022-10-22T07:08:36.123Z,100521.66
2022-10-22T07:11:20.777Z,100527.63
2022-10-22T07:13:48.453Z,100522.16
2022-10-22T07:16:16.601Z,100528.13
2022-10-22T07:18:43.839Z,100531.50
2022-10-22T07:21:11.818Z,100533.94
2022-10-22T07:23:38.720Z,100543.28
2022-10-22T07:26:07.435Z,100540.50
2022-10-22T07:28:35.547Z,100540.28
2022-10-22T07:31:02.423Z,100545.41
2022-10-22T07:33:28.843Z,100549.63
2022-10-22T07:35:59.898Z,100550.41
2022-10-22T07:38:26.874Z,100548.63
2022-10-22T07:40:53.291Z,100547.47
2022-10-22T07:43:19.902Z,100563.41
2022-10-22T07:45:46.797Z,100565.09
2022-10-22T07:48:13.222Z,100572.94
2022-10-22T07:50:39.767Z,100572.94
2022-10-22T07:53:06.159Z,100574.63
2022-10-22T07:55:33.476Z,100580.59
2022-10-22T07:58:00.059Z,100584.00
2022-10-22T08:00:26.661Z,100583.81
2022-10-22T08:02:53.120Z,100589.84
2022-10-22T08:05:19.761Z,100583.72
2022-10-22T08:07:46.282Z,100593.41
2022-10-22T08:10:13.414Z,100602.09
2022-10-22T08:12:41.144Z,100595.84
2022-10-22T08:15:08.489Z,100601.81
2022-10-22T08:17:34.991Z,100613.22
2022-10-22T08:20:01.480Z,100616.66
2022-10-22T08:22:27.963Z,100614.88
2022-10-22T08:24:54.416Z,100616.59
2022-10-22T08:27:20.943Z,100622.78
2022-10-22T08:29:47.361Z,100620.25
2022-10-22T08:32:14.334Z,100622.91
2022-10-22T08:34:40.844Z,100632.56
2022-10-22T08:37:08.569Z,100640.50
2022-10-22T08:39:35.502Z,100640.34
2022-10-22T08:42:35.805Z,100638.53
2022-10-22T08:45:31.024Z,100645.41
2022-10-22T08:48:09.967Z,100644.56
2022-10-22T08:50:43.839Z,100648.00
2022-10-22T08:53:17.375Z,100655.78
2022-10-22T08:55:45.571Z,100650.44
2022-10-22T08:58:24.168Z,100661.75
2022-10-22T09:01:09.645Z,100658.09
2022-10-22T09:03:39.884Z,100664.13
2022-10-22T09:06:22.792Z,100663.06
2022-10-22T09:08:50.174Z,100660.22
2022-10-22T09:11:38.264Z,100668.75
2022-10-22T09:14:05.261Z,100672.13
2022-10-22T09:16:53.563Z,100675.56
2022-10-22T09:19:37.972Z,100670.22
2022-10-22T09:22:27.175Z,100671.91
2022-10-22T09:25:09.935Z,100684.91
2022-10-22T09:27:36.321Z,100675.94
2022-10-22T09:30:03.610Z,100681.22
2022-10-22T09:32:32.033Z,100679.50
2022-10-22T09:34:58.675Z,100678.63
2022-10-22T09:37:29.474Z,100682.91
2022-10-22T09:39:58.908Z,100687.22
2022-10-22T09:42:25.624Z,100681.09
2022-10-22T09:44:58.517Z,100681.09
2022-10-22T09:48:00.685Z,100694.25
2022-10-22T09:50:29.003Z,100705.56
2022-10-22T09:53:11.695Z,100699.44
2022-10-22T09:55:42.127Z,100705.50
2022-10-22T09:58:12.645Z,100697.53
2022-10-22T10:00:41.626Z,100704.59
2022-10-22T10:03:17.887Z,100703.59
2022-10-22T10:05:48.770Z,100714.06
2022-10-22T10:08:17.564Z,100706.88
2022-10-22T10:10:52.634Z,100711.19
2022-10-22T10:13:38.634Z,100713.72
2022-10-22T10:16:23.863Z,100726.63
2022-10-22T10:19:16.901Z,100729.28
2022-10-22T10:21:49.223Z,100734.53
2022-10-22T10:24:27.734Z,100744.97
2022-10-22T10:27:05.221Z,100738.63
2022-10-22T10:29:46.202Z,100740.44
2022-10-22T10:32:52.969Z,100743.03
2022-10-22T10:35:30.874Z,100739.22
2022-10-22T10:38:06.578Z,100747.03
2022-10-22T10:40:50.350Z,100744.22
2022-10-22T10:43:51.226Z,100747.63
2022-10-22T10:46:44.163Z,100749.19
2022-10-22T10:49:26.851Z,100743.00
2022-10-22T10:52:21.385Z,100755.97
2022-10-22T10:55:05.942Z,100755.81
2022-10-22T10:57:38.728Z,100758.31
2022-10-22T11:00:40.129Z,100754.81
2022-10-22T11:03:39.709Z,100749.59
2022-10-22T11:06:14.601Z,100764.59
2022-10-22T11:08:45.852Z,100757.56
2022-10-22T11:11:18.271Z,100758.75
2022-10-22T11:13:53.475Z,100761.47
2022-10-22T11:16:42.902Z,100764.38
2022-10-22T11:19:23.196Z,100768.66
2022-10-22T11:22:08.451Z,100767.81
2022-10-22T11:24:56.808Z,100765.16
2022-10-22T11:27:54.085Z,100774.09
2022-10-22T11:30:23.098Z,100781.09
2022-10-22T11:32:56.603Z,100772.38
2022-10-22T11:35:33.990Z,100776.72
2022-10-22T11:38:02.641Z,100768.81
2022-10-22T11:40:28.994Z,100776.06
2022-10-22T11:42:59.007Z,100770.00
2022-10-22T11:45:25.332Z,100782.25
2022-10-22T11:47:53.506Z,100773.31
2022-10-22T11:50:22.922Z,100762.69
2022-10-22T11:53:03.138Z,100773.75
2022-10-22T11:55:55.508Z,100771.81
2022-10-22T11:58:27.914Z,100763.81
2022-10-22T12:01:14.528Z,100765.47
2022-10-22T12:03:50.316Z,100759.94
2022-10-22T12:06:20.958Z,100756.16
2022-10-22T12:08:50.581Z,100757.63
2022-10-22T12:11:20.046Z,100750.44
2022-10-22T12:14:03.844Z,100756.53
2022-10-22T12:16:54.723Z,100749.28
2022-10-22T12:19:22.720Z,100755.31
2022-10-22T12:21:58.530Z,100758.75
2022-10-22T12:24:29.292Z,100758.81
2022-10-22T12:26:55.776Z,100760.69
2022-10-22T12:29:23.687Z,100752.72
2022-10-22T12:31:50.465Z,100748.50
2022-10-22T12:34:21.462Z,100756.78
2022-10-22T12:36:52.187Z,100751.50
2022-10-22T12:39:21.110Z,100754.00
2022-10-22T12:41:47.840Z,100746.28
2022-10-22T12:44:17.376Z,100743.63
2022-10-22T12:46:46.989Z,100743.72
2022-10-22T12:49:21.222Z,100741.66
2022-10-22T12:51:48.711Z,100748.84
2022-10-22T12:54:26.973Z,100743.44
2022-10-22T12:56:55.495Z,100746.28
2022-10-22T12:59:21.933Z,100742.16
2022-10-22T13:01:50.444Z,100738.22
2022-10-22T13:04:16.804Z,100740.81
2022-10-22T13:06:45.429Z,100745.00
2022-10-22T13:09:25.193Z,100740.38
2022-10-22T13:12:04.733Z,100749.19
2022-10-22T13:14:38.052Z,100743.06
2022-10-22T13:17:16.945Z,100735.84
2022-10-22T13:19:52.632Z,100744.63
2022-10-22T13:22:32.546Z,100752.53
2022-10-22T13:25:06.396Z,100747.31
2022-10-22T13:27:32.963Z,100758.81
2022-10-22T13:30:10.430Z,100749.91
2022-10-22T13:32:36.984Z,100754.50
2022-10-22T13:35:03.999Z,100758.13
2022-10-22T13:37:34.019Z,100757.78
2022-10-22T13:40:00.478Z,100754.13
2022-10-22T13:42:26.999Z,100753.44
2022-10-22T13:44:53.415Z,100751.00
2022-10-22T13:47:28.924Z,100748.44
2022-10-22T13:49:59.933Z,100753.03
2022-10-22T13:52:49.561Z,100751.38
2022-10-22T13:55:29.048Z,100755.81
2022-10-22T13:57:59.806Z,100752.41
2022-10-22T14:00:27.475Z,100761.00
2022-10-22T14:02:58.026Z,100757.63
2022-10-22T14:05:24.590Z,100761.38
2022-10-22T14:07:54.166Z,100754.50
2022-10-22T14:10:25.214Z,100761.81
2022-10-22T14:12:55.166Z,100761.25
2022-10-22T14:15:24.271Z,100757.94
2022-10-22T14:17:56.067Z,100757.94
2022-10-22T14:20:26.268Z,100750.88
2022-10-22T14:22:52.878Z,100743.94
2022-10-22T14:25:25.395Z,100750.13
2022-10-22T14:27:52.095Z,100747.50
2022-10-22T14:30:25.857Z,100742.16
2022-10-22T14:32:52.810Z,100751.06
2022-10-22T14:35:21.962Z,100743.63
2022-10-22T14:37:48.479Z,100749.88
2022-10-22T14:40:17.069Z,100748.00
2022-10-22T14:42:45.222Z,100753.28
2022-10-22T14:45:21.689Z,100750.63
2022-10-22T14:47:49.937Z,100752.84
2022-10-22T14:50:17.177Z,100751.84
2022-10-22T14:52:44.057Z,100743.06
2022-10-22T14:55:12.635Z,100751.81
2022-10-22T14:57:39.923Z,100745.66
2022-10-22T15:00:09.224Z,100750.63
2022-10-22T15:02:35.713Z,100754.09
2022-10-22T15:05:02.470Z,100747.31
2022-10-22T15:07:28.902Z,100760.63
2022-10-22T15:09:55.334Z,100765.13
2022-10-22T15:12:21.777Z,100755.56
2022-10-22T15:14:48.514Z,100757.41
2022-10-22T15:17:16.100Z,100761.94
2022-10-22T15:19:45.609Z,100762.97
2022-10-22T15:22:13.648Z,100768.41
2022-10-22T15:24:43.705Z,100765.06
2022-10-22T15:27:13.639Z,100767.00
2022-10-22T15:29:41.517Z,100762.75
2022-10-22T15:32:11.838Z,100759.53
2022-10-22T15:34:39.724Z,100760.63
2022-10-22T15:37:08.441Z,100765.22
2022-10-22T15:39:35.659Z,100763.66
2022-10-22T15:42:02.066Z,100777.03
2022-10-22T15:44:31.210Z,100776.28
2022-10-22T15:46:58.500Z,100775.56
2022-10-22T15:49:27.682Z,100778.28
2022-10-22T15:51:54.954Z,100780.31
2022-10-22T15:54:29.575Z,100783.03
2022-10-22T15:56:58.168Z,100779.72
2022-10-22T15:59:24.763Z,100775.34
2022-10-22T16:01:51.461Z,100780.66
2022-10-22T16:04:18.137Z,100780.72
2022-10-22T16:06:47.240Z,100789.56
2022-10-22T16:09:19.900Z,100786.19
2022-10-22T16:11:46.723Z,100787.91
2022-10-22T16:14:15.791Z,100785.31
2022-10-22T16:16:45.102Z,100782.69
2022-10-22T16:19:13.759Z,100792.41
2022-10-22T16:21:40.918Z,100788.91
2022-10-22T16:24:08.556Z,100788.97
2022-10-22T16:26:35.849Z,100790.00
2022-10-22T16:29:02.432Z,100790.16
2022-10-22T16:31:28.925Z,100785.81
2022-10-22T16:33:55.422Z,100786.72
2022-10-22T16:36:22.784Z,100789.50
2022-10-22T16:38:49.669Z,100788.81
2022-10-22T16:41:21.950Z,100787.25
2022-10-22T16:43:50.477Z,100785.66
2022-10-22T16:46:18.540Z,100782.34
2022-10-22T16:48:51.676Z,100789.59
2022-10-22T16:51:21.110Z,100788.78
2022-10-22T16:53:48.051Z,100800.97
2022-10-22T16:56:16.314Z,100797.56
2022-10-22T16:58:52.120Z,100801.97
2022-10-22T17:01:21.022Z,100809.34
2022-10-22T17:03:47.522Z,100812.03
2022-10-22T17:06:14.804Z,100803.69
2022-10-22T17:08:42.117Z,100810.88
2022-10-22T17:11:18.492Z,100811.03
2022-10-22T17:13:46.796Z,100817.22
2022-10-22T17:16:15.573Z,100812.81
2022-10-22T17:18:43.832Z,100815.50
2022-10-22T17:21:11.108Z,100814.56
2022-10-22T17:23:38.283Z,100816.53
2022-10-22T17:26:07.555Z,100813.34
2022-10-22T17:28:36.172Z,100810.69
2022-10-22T17:31:16.391Z,100822.25
2022-10-22T17:33:43.398Z,100820.00
2022-10-22T17:36:12.654Z,100821.00
2022-10-22T17:38:41.237Z,100817.56
2022-10-22T17:41:12.514Z,100828.03
2022-10-22T17:43:41.206Z,100821.81
2022-10-22T17:46:13.402Z,100826.13
2022-10-22T17:48:40.110Z,100826.44
2022-10-22T17:51:11.607Z,100832.91
2022-10-22T17:53:42.846Z,100831.06
2022-10-22T17:56:10.294Z,100830.94
2022-10-22T17:58:37.309Z,100825.88
2022-10-22T18:01:04.777Z,100833.03
2022-10-22T18:03:32.531Z,100833.13
2022-10-22T18:06:09.941Z,100828.72
2022-10-22T18:08:36.679Z,100828.03
2022-10-22T18:11:08.366Z,100842.00
2022-10-22T18:13:34.946Z,100835.22
2022-10-22T18:16:01.778Z,100838.75
2022-10-22T18:18:28.736Z,100832.78
2022-10-22T18:20:55.177Z,100827.66
2022-10-22T18:23:21.587Z,100834.69
2022-10-22T18:25:48.698Z,100833.75
2022-10-22T18:28:16.538Z,100832.13
2022-10-22T18:30:44.474Z,100839.13
2022-10-22T18:33:12.977Z,100832.41
2022-10-22T18:35:41.257Z,100836.09
2022-10-22T18:38:08.537Z,100837.09
2022-10-22T18:40:36.021Z,100828.25
2022-10-22T18:43:03.490Z,100830.84
2022-10-22T18:45:30.117Z,100822.19
2022-10-22T18:47:56.553Z,100825.78
2022-10-22T18:50:22.981Z,100838.13
2022-10-22T18:52:49.432Z,100831.19
2022-10-22T18:55:15.954Z,100827.56
2022-10-22T18:57:42.364Z,100831.25
2022-10-22T19:00:09.403Z,100826.16
2022-10-22T19:02:37.576Z,100826.00
2022-10-22T19:05:04.235Z,100829.72
2022-10-22T19:07:31.723Z,100823.06
2022-10-22T19:09:59.021Z,100828.19
2022-10-22T19:12:25.443Z,100825.50
2022-10-22T19:14:52.923Z,100822.41
2022-10-22T19:17:19.365Z,100818.03
2022-10-22T19:19:45.775Z,100809.31
2022-10-22T19:22:12.840Z,100805.84
2022-10-22T19:24:39.408Z,100813.13
2022-10-22T19:27:08.310Z,100805.19
2022-10-22T19:29:34.883Z,100798.94
2022-10-22T19:32:01.342Z,100799.03
2022-10-22T19:34:27.811Z,100806.09
2022-10-22T19:36:54.285Z,100807.97
2022-10-22T19:39:20.822Z,100818.28
2022-10-22T19:41:47.281Z,100810.63
2022-10-22T19:44:13.936Z,100814.16
2022-10-22T19:46:40.434Z,100808.91
2022-10-22T19:49:06.983Z,100813.13
2022-10-22T19:51:34.383Z,100820.19
2022-10-22T19:54:04.954Z,100822.81
2022-10-22T19:56:33.076Z,100827.28
2022-10-22T19:59:00.016Z,100821.28
2022-10-22T20:01:26.752Z,100815.94
2022-10-22T20:03:53.636Z,100815.88
2022-10-22T20:06:21.732Z,100822.13
2022-10-22T20:08:49.992Z,100823.94
2022-10-22T20:11:24.594Z,100823.09
2022-10-22T20:13:52.413Z,100833.53
2022-10-22T20:16:24.225Z,100828.25
2022-10-22T20:18:51.672Z,100822.09
2022-10-22T20:21:19.297Z,100817.56
2022-10-22T20:23:47.365Z,100827.16
2022-10-22T20:26:14.129Z,100816.75
2022-10-22T20:28:40.561Z,100822.75
2022-10-22T20:31:16.248Z,100820.22
2022-10-22T20:33:42.880Z,100827.94
2022-10-22T20:36:14.132Z,100827.06
2022-10-22T20:38:40.524Z,100826.16
2022-10-22T20:41:11.792Z,100824.38
2022-10-22T20:43:38.266Z,100821.81
2022-10-22T20:46:04.865Z,100817.38
2022-10-22T20:48:31.822Z,100828.75
2022-10-22T20:50:59.846Z,100820.78
2022-10-22T20:53:27.121Z,100819.97
2022-10-22T20:55:57.771Z,100812.19
2022-10-22T20:58:26.843Z,100806.06
2022-10-22T21:00:54.695Z,100815.78
2022-10-22T21:03:21.176Z,100820.28
2022-10-22T21:05:47.717Z,100820.31
2022-10-22T21:08:17.397Z,100834.41
2022-10-22T21:10:46.303Z,100832.72
2022-10-22T21:13:13.920Z,100832.53
2022-10-22T21:15:40.715Z,100830.69
2022-10-22T21:18:08.138Z,100834.91
2022-10-22T21:20:34.570Z,100836.38
2022-10-22T21:23:00.999Z,100833.66
2022-10-22T21:25:27.520Z,100837.13
2022-10-22T21:27:53.905Z,100837.13
2022-10-22T21:30:20.332Z,100838.78
2022-10-22T21:32:46.738Z,100836.94
2022-10-22T21:35:13.148Z,100837.72
2022-10-22T21:37:39.825Z,100831.63
2022-10-22T21:40:07.184Z,100830.66
2022-10-22T21:42:33.987Z,100827.09
2022-10-22T21:45:00.460Z,100818.31
2022-10-22T21:47:26.976Z,100825.31
2022-10-22T21:49:53.795Z,100819.25
2022-10-22T21:52:20.208Z,100818.44
2022-10-22T21:54:46.727Z,100832.47
2022-10-22T21:57:13.197Z,100836.91
2022-10-22T21:59:39.588Z,100835.25
2022-10-22T22:02:06.178Z,100836.25
2022-10-22T22:04:32.976Z,100824.88
2022-10-22T22:06:59.417Z,100825.75
2022-10-22T22:09:25.841Z,100823.97
2022-10-22T22:11:52.266Z,100823.03
2022-10-22T22:14:18.668Z,100825.59
2022-10-22T22:16:45.108Z,100814.28
2022-10-22T22:19:12.370Z,100816.09
2022-10-22T22:21:40.579Z,100817.84
2022-10-22T22:24:08.848Z,100815.28
2022-10-22T22:26:36.367Z,100815.41
2022-10-22T22:29:03.689Z,100814.72
2022-10-22T22:31:32.851Z,100815.66
2022-10-22T22:34:05.879Z,100816.56
2022-10-22T22:36:35.084Z,100804.44
2022-10-22T22:39:02.012Z,100806.09
2022-10-22T22:41:28.519Z,100810.50
2022-10-22T22:46:26.549Z,100808.91
2022-10-22T22:48:52.994Z,100814.16
2022-10-22T22:51:19.590Z,100808.19
2022-10-22T22:53:46.678Z,100804.66
2022-10-22T22:56:17.532Z,100809.91
2022-10-22T22:58:44.721Z,100809.97
2022-10-22T23:01:18.894Z,100808.25
2022-10-22T23:03:53.285Z,100812.56
2022-10-22T23:06:19.734Z,100809.88
2022-10-22T23:08:52.170Z,100804.56
2022-10-22T23:11:19.983Z,100796.63
2022-10-22T23:13:46.993Z,100796.66
2022-10-22T23:16:19.412Z,100785.28
2022-10-22T23:18:47.767Z,100788.91
2022-10-22T23:21:17.368Z,100784.59
2022-10-22T23:23:49.505Z,100788.19
2022-10-22T23:26:20.537Z,100789.13
2022-10-22T23:28:47.213Z,100797.00
2022-10-22T23:31:16.540Z,100799.66
2022-10-22T23:33:43.855Z,100797.09
2022-10-22T23:36:11.417Z,100786.53
2022-10-22T23:38:39.376Z,100779.66
2022-10-22T23:41:06.321Z,100781.38
2022-10-22T23:43:36.109Z,100793.66
2022-10-22T23:46:06.627Z,100793.66
2022-10-22T23:48:33.279Z,100774.47
2022-10-22T23:51:08.483Z,100777.13
2022-10-22T23:53:35.067Z,100777.25
2022-10-22T23:56:16.838Z,100776.50
2022-10-22T23:58:44.443Z,100771.22
